createdAt,value
2022-11-10T00:00:33.714Z,23.43
2022-11-10T00:03:39.337Z,22.60
2022-11-10T00:06:44.671Z,21.53
2022-11-10T00:09:48.716Z,21.63
2022-11-10T00:12:52.522Z,20.27
2022-11-10T00:16:18.061Z,20.17
2022-11-10T00:19:22.457Z,19.83
2022-11-10T00:22:26.727Z,18.83
2022-11-10T00:25:32.359Z,19.10
2022-11-10T00:28:36.291Z,19.40
2022-11-10T00:31:41.154Z,18.23
2022-11-10T00:34:44.949Z,18.50
2022-11-10T00:37:50.480Z,17.87
2022-11-10T00:40:54.674Z,17.83
2022-11-10T00:43:58.700Z,17.60
2022-11-10T00:47:02.844Z,17.83
2022-11-10T00:50:07.449Z,18.47
2022-11-10T00:53:11.713Z,16.60
2022-11-10T00:56:16.005Z,15.73
2022-11-10T00:59:20.167Z,16.07
2022-11-10T01:02:24.108Z,16.40
2022-11-10T01:05:29.311Z,17.00
2022-11-10T01:08:33.103Z,15.23
2022-11-10T01:11:36.937Z,16.67
2022-11-10T01:14:40.853Z,14.20
2022-11-10T01:17:44.733Z,13.03
2022-11-10T01:20:52.630Z,14.77
2022-11-10T01:23:56.878Z,13.87
2022-11-10T01:27:00.667Z,13.20
2022-11-10T01:30:05.690Z,15.17
2022-11-10T01:33:09.580Z,15.10
2022-11-10T01:36:14.040Z,14.00
2022-11-10T01:39:18.162Z,14.07
2022-11-10T01:42:28.120Z,13.47
2022-11-10T01:45:49.977Z,13.20
2022-11-10T01:49:00.842Z,13.10
2022-11-10T01:52:07.940Z,12.70
2022-11-10T01:55:11.953Z,13.60
2022-11-10T01:58:20.883Z,11.67
2022-11-10T02:01:24.869Z,12.10
2022-11-10T02:04:30.708Z,12.00
2022-11-10T02:07:35.358Z,11.60
2022-11-10T02:10:39.666Z,10.60
2022-11-10T02:13:44.132Z,10.60
2022-11-10T02:16:48.107Z,10.60
2022-11-10T02:19:52.575Z,10.97
2022-11-10T02:22:56.648Z,11.20
2022-11-10T02:26:02.785Z,11.33
2022-11-10T02:29:07.069Z,10.00
2022-11-10T02:32:10.859Z,10.53
2022-11-10T02:35:14.651Z,10.37
2022-11-10T02:38:18.614Z,9.17
2022-11-10T02:41:22.508Z,10.20
2022-11-10T02:44:26.542Z,9.37
2022-11-10T02:47:30.357Z,9.60
2022-11-10T02:50:34.736Z,9.20
2022-11-10T02:53:38.939Z,10.03
2022-11-10T02:56:42.777Z,8.77
2022-11-10T02:59:46.705Z,8.60
2022-11-10T03:03:02.135Z,8.93
2022-11-10T03:06:06.294Z,9.40
2022-11-10T03:09:10.299Z,8.40
2022-11-10T03:12:14.210Z,8.43
2022-11-10T03:15:18.033Z,8.27
2022-11-10T03:18:22.394Z,8.27
2022-11-10T03:21:26.139Z,7.33
2022-11-10T03:24:30.021Z,8.50
2022-11-10T03:27:33.986Z,8.23
2022-11-10T03:30:38.721Z,7.27
2022-11-10T03:33:42.848Z,7.30
2022-11-10T03:36:46.749Z,7.23
2022-11-10T03:39:50.522Z,7.10
2022-11-10T03:42:54.653Z,6.60
2022-11-10T03:45:58.709Z,5.93
2022-11-10T03:49:02.880Z,7.10
2022-11-10T03:52:06.864Z,6.77
2022-11-10T03:55:12.928Z,6.17
2022-11-10T03:58:16.775Z,6.57
2022-11-10T04:01:20.735Z,6.60
2022-11-10T04:04:43.387Z,5.50
2022-11-10T04:08:06.046Z,4.80
2022-11-10T04:11:10.107Z,5.30
2022-11-10T04:14:33.102Z,6.33
2022-11-10T04:17:36.943Z,5.90
2022-11-10T04:20:40.860Z,4.97
2022-11-10T04:23:44.658Z,4.70
2022-11-10T04:26:49.305Z,5.57
2022-11-10T04:29:53.611Z,5.37
2022-11-10T04:32:57.315Z,5.13
2022-11-10T04:36:01.319Z,5.03
2022-11-10T04:39:07.062Z,4.43
2022-11-10T04:42:11.439Z,4.93
2022-11-10T04:45:15.642Z,4.17
2022-11-10T04:48:20.063Z,4.47
2022-11-10T04:51:26.806Z,4.47
2022-11-10T04:54:30.778Z,4.07
2022-11-10T04:57:34.503Z,4.10
2022-11-10T05:00:38.951Z,4.17
2022-11-10T05:03:43.681Z,4.30
2022-11-10T05:06:47.594Z,3.83
2022-11-10T05:09:51.814Z,3.73
2022-11-10T05:12:56.774Z,3.90
2022-11-10T05:16:00.803Z,3.10
2022-11-10T05:19:04.819Z,3.93
2022-11-10T05:22:08.834Z,3.77
2022-11-10T05:25:12.791Z,3.40
2022-11-10T05:28:17.019Z,4.27
2022-11-10T05:31:21.155Z,3.57
2022-11-10T05:34:24.866Z,3.47
2022-11-10T05:37:28.782Z,2.93
2022-11-10T05:40:33.791Z,3.53
2022-11-10T05:43:38.160Z,2.90
2022-11-10T05:46:42.724Z,2.97
2022-11-10T05:49:46.455Z,2.93
2022-11-10T05:52:52.516Z,2.93
2022-11-10T05:55:56.540Z,3.47
2022-11-10T05:59:00.839Z,2.83
2022-11-10T06:02:04.979Z,3.97
2022-11-10T06:05:09.731Z,2.73
2022-11-10T06:08:13.815Z,3.37
2022-11-10T06:11:18.725Z,2.80
2022-11-10T06:14:22.756Z,2.50
2022-11-10T06:17:26.548Z,2.77
2022-11-10T06:20:30.627Z,2.53
2022-11-10T06:23:34.851Z,2.60
2022-11-10T06:26:38.734Z,2.23
2022-11-10T06:29:42.642Z,2.50
2022-11-10T06:32:46.823Z,2.63
2022-11-10T06:35:51.699Z,2.37
2022-11-10T06:38:55.868Z,4.23
2022-11-10T06:42:00.595Z,3.10
2022-11-10T06:45:04.937Z,8.10
2022-11-10T06:48:16.466Z,8.13
2022-11-10T06:51:20.520Z,10.13
2022-11-10T06:54:24.207Z,10.57
2022-11-10T06:57:28.323Z,14.10
2022-11-10T07:00:32.143Z,5.27
2022-11-10T07:03:44.379Z,5.77
2022-11-10T07:06:58.200Z,7.97
2022-11-10T07:10:06.806Z,9.33
2022-11-10T07:13:12.055Z,6.60
2022-11-10T07:16:19.340Z,5.07
2022-11-10T07:19:27.698Z,5.27
2022-11-10T07:22:31.853Z,3.47
2022-11-10T07:25:37.443Z,5.30
2022-11-10T07:28:42.633Z,6.30
2022-11-10T07:31:46.511Z,4.80
2022-11-10T07:34:50.633Z,3.03
2022-11-10T07:37:55.667Z,2.60
2022-11-10T07:40:59.700Z,4.93
2022-11-10T07:44:03.845Z,4.40
2022-11-10T07:47:08.136Z,3.43
2022-11-10T07:50:12.710Z,4.53
2022-11-10T07:53:20.030Z,3.00
2022-11-10T07:56:24.259Z,1.80
2022-11-10T07:59:28.678Z,3.80
2022-11-10T08:02:32.905Z,4.70
2022-11-10T08:05:37.213Z,4.97
2022-11-10T08:08:41.311Z,2.87
2022-11-10T08:11:45.528Z,3.60
2022-11-10T08:14:49.525Z,2.47
2022-11-10T08:18:11.060Z,1.90
2022-11-10T08:21:15.315Z,4.23
2022-11-10T08:24:19.597Z,2.13
2022-11-10T08:27:23.749Z,4.70
2022-11-10T08:30:28.738Z,4.93
2022-11-10T08:33:32.793Z,2.80
2022-11-10T08:36:38.087Z,2.23
2022-11-10T08:39:42.436Z,2.77
2022-11-10T08:42:47.346Z,2.23
2022-11-10T08:45:54.767Z,3.00
2022-11-10T08:48:58.572Z,2.10
2022-11-10T08:52:04.253Z,3.40
2022-11-10T08:55:08.565Z,4.90
2022-11-10T08:58:15.300Z,3.67
2022-11-10T09:01:19.916Z,2.37
2022-11-10T09:04:24.240Z,2.70
2022-11-10T09:07:28.510Z,3.03
2022-11-10T09:10:34.535Z,2.63
2022-11-10T09:13:38.743Z,2.97
2022-11-10T09:16:42.786Z,3.00
2022-11-10T09:19:49.199Z,2.13
2022-11-10T09:22:53.412Z,2.63
2022-11-10T09:25:57.652Z,2.17
2022-11-10T09:29:01.761Z,2.07
2022-11-10T09:32:05.988Z,3.93
2022-11-10T09:35:10.289Z,1.87
2022-11-10T09:38:14.579Z,1.50
2022-11-10T09:41:18.583Z,1.33
2022-11-10T09:44:29.223Z,1.73
2022-11-10T09:47:57.313Z,2.80
2022-11-10T09:51:21.039Z,2.27
2022-11-10T09:54:43.806Z,1.50
2022-11-10T09:57:53.255Z,2.80
2022-11-10T10:01:11.623Z,2.10
2022-11-10T10:04:52.294Z,1.50
2022-11-10T10:08:10.859Z,1.50
2022-11-10T10:11:41.327Z,1.83
2022-11-10T10:15:30.184Z,1.90
2022-11-10T10:18:44.924Z,1.57
2022-11-10T10:22:13.214Z,1.50
2022-11-10T10:25:27.777Z,2.07
2022-11-10T10:28:41.560Z,1.43
2022-11-10T10:31:51.230Z,1.43
2022-11-10T10:34:57.135Z,2.30
2022-11-10T10:38:04.106Z,1.40
2022-11-10T10:41:23.920Z,1.43
2022-11-10T10:44:28.061Z,1.87
2022-11-10T10:47:39.249Z,1.53
2022-11-10T10:50:43.355Z,1.97
2022-11-10T10:53:48.057Z,3.53
2022-11-10T10:57:02.300Z,3.10
2022-11-10T11:00:22.867Z,1.90
2022-11-10T11:03:38.046Z,1.30
2022-11-10T11:06:56.252Z,1.97
2022-11-10T11:10:01.032Z,3.03
2022-11-10T11:13:25.897Z,2.03
2022-11-10T11:16:46.009Z,1.20
2022-11-10T11:19:59.880Z,1.67
2022-11-10T11:23:32.244Z,1.47
2022-11-10T11:26:49.589Z,1.30
2022-11-10T11:30:09.087Z,2.33
2022-11-10T11:33:38.100Z,2.23
2022-11-10T11:36:59.065Z,1.40
2022-11-10T11:40:25.127Z,1.93
2022-11-10T11:44:06.719Z,1.57
2022-11-10T11:47:32.288Z,1.33
2022-11-10T11:50:59.053Z,1.23
2022-11-10T11:54:29.626Z,3.33
2022-11-10T11:57:38.795Z,1.17
2022-11-10T12:01:31.285Z,1.33
2022-11-10T12:04:41.959Z,1.43
2022-11-10T12:08:05.822Z,1.13
2022-11-10T12:11:37.593Z,1.43
2022-11-10T12:14:51.943Z,2.47
2022-11-10T12:18:27.407Z,0.90
2022-11-10T12:21:50.405Z,0.90
2022-11-10T12:25:17.575Z,0.90
2022-11-10T12:28:28.135Z,1.27
2022-11-10T12:31:35.706Z,1.90
2022-11-10T12:34:43.857Z,3.07
2022-11-10T12:37:59.272Z,1.20
2022-11-10T12:41:10.863Z,1.13
2022-11-10T12:44:26.571Z,2.20
2022-11-10T12:47:43.495Z,1.57
2022-11-10T12:50:52.919Z,1.90
2022-11-10T12:53:56.941Z,1.30
2022-11-10T12:57:07.672Z,1.20
2022-11-10T13:00:35.250Z,1.13
2022-11-10T13:03:52.963Z,1.23
2022-11-10T13:07:00.713Z,1.40
2022-11-10T13:10:27.105Z,1.13
2022-11-10T13:13:43.223Z,1.07
2022-11-10T13:16:54.259Z,1.50
2022-11-10T13:20:27.441Z,1.43
2022-11-10T13:23:27.759Z,1.50
2022-11-10T13:26:40.838Z,3.60
2022-11-10T13:29:47.830Z,3.23
2022-11-10T13:32:51.862Z,4.83
2022-11-10T13:35:57.232Z,1.97
2022-11-10T13:39:15.615Z,1.37
2022-11-10T13:42:24.650Z,5.07
2022-11-10T13:45:43.281Z,1.23
2022-11-10T13:49:19.759Z,2.47
2022-11-10T13:52:39.316Z,3.93
2022-11-10T13:55:51.926Z,3.40
2022-11-10T13:58:57.937Z,4.10
2022-11-10T14:02:45.492Z,3.30
2022-11-10T14:06:02.143Z,9.73
2022-11-10T14:09:27.175Z,3.00
2022-11-10T14:12:40.709Z,4.33
2022-11-10T14:15:47.515Z,3.37
2022-11-10T14:19:19.386Z,28.27
2022-11-10T14:22:34.730Z,137.77
2022-11-10T14:25:41.105Z,91.13
2022-11-10T14:28:45.259Z,165.33
2022-11-10T14:31:49.179Z,150.87
2022-11-10T14:34:55.501Z,107.13
2022-11-10T14:38:01.688Z,116.17
2022-11-10T14:41:14.276Z,109.07
2022-11-10T14:44:27.430Z,107.27
2022-11-10T14:47:31.542Z,103.60
2022-11-10T14:50:35.979Z,95.77
2022-11-10T14:53:52.552Z,98.83
2022-11-10T14:56:57.066Z,78.43
2022-11-10T15:00:01.160Z,61.60
2022-11-10T15:03:06.915Z,44.23
2022-11-10T15:06:12.914Z,51.43
2022-11-10T15:09:31.188Z,43.73
2022-11-10T15:12:40.892Z,40.80
2022-11-10T15:15:46.283Z,37.33
2022-11-10T15:18:51.078Z,38.50
2022-11-10T15:21:55.131Z,29.17
2022-11-10T15:25:14.958Z,24.17
2022-11-10T15:28:33.010Z,26.80
2022-11-10T15:31:43.638Z,18.83
2022-11-10T15:34:49.253Z,20.60
2022-11-10T15:38:12.906Z,17.97
2022-11-10T15:41:27.476Z,18.20
2022-11-10T15:44:31.778Z,13.33
2022-11-10T15:47:35.875Z,12.00
2022-11-10T15:50:46.467Z,14.87
2022-11-10T15:53:51.897Z,14.53
2022-11-10T15:56:55.889Z,13.40
2022-11-10T15:59:59.825Z,10.33
2022-11-10T16:03:04.739Z,12.60
2022-11-10T16:06:12.938Z,10.47
2022-11-10T16:09:16.760Z,14.20
2022-11-10T16:12:22.372Z,13.27
2022-11-10T16:15:26.592Z,11.50
2022-11-10T16:18:31.112Z,10.17
2022-11-10T16:21:35.335Z,10.03
2022-11-10T16:24:40.558Z,10.53
2022-11-10T16:27:44.640Z,12.77
2022-11-10T16:30:50.214Z,19.30
2022-11-10T16:33:54.355Z,100.80
2022-11-10T16:36:58.659Z,87.37
2022-11-10T16:40:20.306Z,100.37
2022-11-10T16:43:25.074Z,82.80
2022-11-10T16:46:30.430Z,74.63
2022-11-10T16:49:35.539Z,65.03
2022-11-10T16:52:39.784Z,68.07
2022-11-10T16:55:44.611Z,53.27
2022-11-10T16:58:48.633Z,60.33
2022-11-10T17:01:54.318Z,45.77
2022-11-10T17:04:58.575Z,48.43
2022-11-10T17:08:03.745Z,48.97
2022-11-10T17:11:08.978Z,42.63
2022-11-10T17:14:13.881Z,44.30
2022-11-10T17:17:19.599Z,38.67
2022-11-10T17:20:31.843Z,31.90
2022-11-10T17:23:36.706Z,57.20
2022-11-10T17:26:41.590Z,71.73
2022-11-10T17:29:46.672Z,67.23
2022-11-10T17:33:04.594Z,64.00
2022-11-10T17:36:17.637Z,63.57
2022-11-10T17:39:22.808Z,49.67
2022-11-10T17:42:27.785Z,46.07
2022-11-10T17:45:32.627Z,42.03
2022-11-10T17:48:36.902Z,43.20
2022-11-10T17:51:40.816Z,37.53
2022-11-10T17:54:45.645Z,33.10
2022-11-10T17:57:49.866Z,31.87
2022-11-10T18:00:54.127Z,37.50
2022-11-10T18:03:58.533Z,32.77
2022-11-10T18:07:02.745Z,26.57
2022-11-10T18:10:10.878Z,28.17
2022-11-10T18:13:15.621Z,30.60
2022-11-10T18:16:19.955Z,36.07
2022-11-10T18:19:24.501Z,38.27
2022-11-10T18:22:29.187Z,33.63
2022-11-10T18:25:37.601Z,36.63
2022-11-10T18:28:46.199Z,34.57
2022-11-10T18:31:53.012Z,32.63
2022-11-10T18:34:58.088Z,31.33
2022-11-10T18:38:05.942Z,31.50
2022-11-10T18:41:30.657Z,37.27
2022-11-10T18:44:38.768Z,29.63
2022-11-10T18:47:43.304Z,32.93
2022-11-10T18:50:48.974Z,32.20
2022-11-10T18:53:56.139Z,26.77
2022-11-10T18:57:00.639Z,28.97
2022-11-10T19:00:07.064Z,26.93
2022-11-10T19:03:11.491Z,21.63
2022-11-10T19:06:16.061Z,27.57
2022-11-10T19:09:20.497Z,24.10
2022-11-10T19:12:30.806Z,24.37
2022-11-10T19:15:40.343Z,18.33
2022-11-10T19:18:45.699Z,19.70
2022-11-10T19:21:50.341Z,24.00
2022-11-10T19:25:07.583Z,20.93
2022-11-10T19:28:12.477Z,16.47
2022-11-10T19:31:18.466Z,19.30
2022-11-10T19:34:23.240Z,15.50
2022-11-10T19:37:34.558Z,14.67
2022-11-10T19:40:42.583Z,18.23
2022-11-10T19:43:47.783Z,15.00
2022-11-10T19:46:53.375Z,19.73
2022-11-10T19:49:59.041Z,17.33
2022-11-10T19:53:03.335Z,13.70
2022-11-10T19:56:12.844Z,13.43
2022-11-10T19:59:19.175Z,10.47
2022-11-10T20:02:23.438Z,15.00
2022-11-10T20:05:27.368Z,12.90
2022-11-10T20:08:32.528Z,12.37
2022-11-10T20:11:36.732Z,12.90
2022-11-10T20:14:40.775Z,11.23
2022-11-10T20:17:44.670Z,12.70
2022-11-10T20:20:48.760Z,10.73
2022-11-10T20:23:54.980Z,10.83
2022-11-10T20:26:59.168Z,8.73
2022-11-10T20:30:04.023Z,14.77
2022-11-10T20:33:08.181Z,12.20
2022-11-10T20:36:19.095Z,8.80
2022-11-10T20:39:24.365Z,13.47
2022-11-10T20:42:28.230Z,9.90
2022-11-10T20:45:32.483Z,9.03
2022-11-10T20:48:36.802Z,9.47
2022-11-10T20:51:41.529Z,8.77
2022-11-10T20:54:45.388Z,9.40
2022-11-10T20:57:49.403Z,11.27
2022-11-10T21:00:53.692Z,10.00
2022-11-10T21:03:58.106Z,6.67
2022-11-10T21:07:02.687Z,8.67
2022-11-10T21:10:07.032Z,8.63
2022-11-10T21:13:11.046Z,5.87
2022-11-10T21:16:15.011Z,8.70
2022-11-10T21:19:18.769Z,7.53
2022-11-10T21:22:22.899Z,6.50
2022-11-10T21:25:27.230Z,9.13
2022-11-10T21:28:33.055Z,6.20
2022-11-10T21:31:36.977Z,7.17
2022-11-10T21:34:42.020Z,5.60
2022-11-10T21:37:46.483Z,10.23
2022-11-10T21:40:50.465Z,8.17
2022-11-10T21:43:54.158Z,8.60
2022-11-10T21:46:58.083Z,5.93
2022-11-10T21:50:02.086Z,12.93
2022-11-10T21:53:08.058Z,9.23
2022-11-10T21:56:12.870Z,8.27
2022-11-10T21:59:19.051Z,6.97
2022-11-10T22:02:22.885Z,7.67
2022-11-10T22:05:27.637Z,6.13
2022-11-10T22:08:32.266Z,6.60
2022-11-10T22:11:54.880Z,6.50
2022-11-10T22:15:17.866Z,6.93
2022-11-10T22:18:37.299Z,4.87
2022-11-10T22:21:41.202Z,6.13
2022-11-10T22:24:45.067Z,4.43
2022-11-10T22:27:49.150Z,6.63
2022-11-10T22:30:53.108Z,5.27
2022-11-10T22:33:56.994Z,5.83
2022-11-10T22:37:00.915Z,6.93
2022-11-10T22:40:24.234Z,5.43
2022-11-10T22:43:47.236Z,30.47
2022-11-10T22:46:52.164Z,77.13
2022-11-10T22:49:56.419Z,95.90
2022-11-10T22:53:00.284Z,110.87
2022-11-10T22:56:04.763Z,74.20
2022-11-10T22:59:09.549Z,58.47
2022-11-10T23:02:13.399Z,50.27
2022-11-10T23:05:17.438Z,53.83
2022-11-10T23:08:21.614Z,48.07
2022-11-10T23:11:28.816Z,40.33
2022-11-10T23:14:32.836Z,36.47
2022-11-10T23:17:36.705Z,33.20
2022-11-10T23:20:40.893Z,35.17
2022-11-10T23:23:45.911Z,30.60
2022-11-10T23:26:50.019Z,25.27
2022-11-10T23:29:53.746Z,25.27
2022-11-10T23:32:57.716Z,22.97
2022-11-10T23:36:02.149Z,22.83
2022-11-10T23:39:06.042Z,22.00
2022-11-10T23:42:10.628Z,21.47
2022-11-10T23:45:14.547Z,20.00
2022-11-10T23:48:19.636Z,20.73
2022-11-10T23:51:25.357Z,19.07
2022-11-10T23:54:29.642Z,18.47
2022-11-10T23:57:33.495Z,16.63
